Time;durP1;ratioP1;P1;durP2;ratioP2;P2;SDS_P1;SDS_P2;PMS_P1;PMS_P2;Temp;Humidity;BMP_temperature;BMP_pressure;BME280_temperature;BME280_humidity;BME280_pressure;Samples;Min_cycle;Max_cycle;Signal;HPM_P1;HPM_P2
2023/10/23 00:01:40;;;;;;;3.08;1.50;;;8.00;99.90;;;;;;5008950;28;20459;-68
2023/10/23 00:04:06;;;;;;;2.13;1.38;;;8.00;99.90;;;;;;5003524;28;20026;-68
2023/10/23 00:06:32;;;;;;;1.92;1.30;;;7.90;99.90;;;;;;4994474;28;20053;-67
2023/10/23 00:08:57;;;;;;;2.47;1.35;;;8.00;99.90;;;;;;4994906;28;20486;-67
2023/10/23 00:11:28;;;;;;;2.88;1.52;;;8.00;99.90;;;;;;5004284;28;20394;-70
2023/10/23 00:13:53;;;;;;;2.50;1.40;;;8.10;99.90;;;;;;5006086;28;20038;-67
2023/10/23 00:16:19;;;;;;;2.28;1.48;;;8.10;99.90;;;;;;5008428;28;20041;-68
2023/10/23 00:18:45;;;;;;;3.28;1.75;;;8.20;99.90;;;;;;5000611;28;20390;-68
2023/10/23 00:21:12;;;;;;;2.50;1.48;;;8.20;99.90;;;;;;5008340;28;20034;-67
2023/10/23 00:23:37;;;;;;;2.45;1.40;;;8.20;99.90;;;;;;5004814;28;20513;-67
2023/10/23 00:26:04;;;;;;;3.65;1.85;;;8.30;99.90;;;;;;5009436;28;20058;-67
2023/10/23 00:28:30;;;;;;;3.42;1.90;;;8.20;99.90;;;;;;5002219;28;20062;-67
2023/10/23 00:30:55;;;;;;;2.85;1.70;;;8.20;99.90;;;;;;5010478;28;20115;-68
2023/10/23 00:33:21;;;;;;;3.10;1.92;;;8.20;99.90;;;;;;5004363;28;20534;-67
2023/10/23 00:35:46;;;;;;;3.00;1.40;;;8.30;99.90;;;;;;5008488;28;20041;-67
2023/10/23 00:38:11;;;;;;;3.20;1.65;;;8.20;99.90;;;;;;5006520;28;20100;-69
2023/10/23 00:40:37;;;;;;;3.22;1.95;;;8.20;99.90;;;;;;5009114;28;20048;-68
2023/10/23 00:43:20;;;;;;;3.67;1.65;;;8.20;99.90;;;;;;5000967;28;20034;-68
2023/10/23 00:45:57;;;;;;;2.28;1.40;;;8.10;99.90;;;;;;5003621;28;20026;-69
2023/10/23 00:48:24;;;;;;;2.55;1.52;;;8.00;99.90;;;;;;5009515;28;20060;-67
2023/10/23 00:50:51;;;;;;;3.25;1.85;;;7.90;99.90;;;;;;4998937;28;20399;-68
2023/10/23 00:53:22;;;;;;;3.03;1.73;;;7.90;99.90;;;;;;4996460;28;20037;-67
2023/10/23 00:55:50;;;;;;;3.00;1.73;;;7.80;99.90;;;;;;5005070;28;20034;-68
2023/10/23 00:58:16;;;;;;;3.47;1.92;;;7.80;99.90;;;;;;4998258;28;20132;-67
2023/10/23 01:00:44;;;;;;;1.83;1.25;;;7.70;99.90;;;;;;5000762;28;20042;-67
2023/10/23 01:03:10;;;;;;;3.92;1.75;;;7.60;99.90;;;;;;5009875;28;20525;-68
2023/10/23 01:05:36;;;;;;;2.75;1.30;;;7.50;99.90;;;;;;5013765;28;20040;-68
2023/10/23 01:08:02;;;;;;;3.25;1.98;;;7.50;99.90;;;;;;5003288;28;20125;-67
2023/10/23 01:10:28;;;;;;;3.90;1.70;;;7.50;99.90;;;;;;4996542;28;20886;-67
2023/10/23 01:12:54;;;;;;;2.35;1.17;;;7.40;99.90;;;;;;5002640;28;20038;-68
2023/10/23 01:15:20;;;;;;;3.58;1.95;;;7.40;99.90;;;;;;5005315;28;20494;-67
2023/10/23 01:17:45;;;;;;;2.78;1.60;;;7.30;99.90;;;;;;5009367;28;20057;-68
2023/10/23 01:20:14;;;;;;;3.70;1.52;;;7.30;99.90;;;;;;5014639;28;20028;-70
2023/10/23 01:22:39;;;;;;;3.70;1.90;;;7.30;99.90;;;;;;5009300;28;20030;-69
2023/10/23 01:25:13;;;;;;;2.95;1.60;;;7.20;99.90;;;;;;5014201;28;20120;-67
2023/10/23 01:27:38;;;;;;;3.13;1.52;;;7.20;99.90;;;;;;5006828;28;20025;-67
2023/10/23 01:30:05;;;;;;;2.97;1.30;;;7.10;99.90;;;;;;5010540;28;20076;-68
2023/10/23 01:32:30;;;;;;;3.08;1.48;;;7.10;99.90;;;;;;5013870;28;20038;-68
2023/10/23 01:34:56;;;;;;;2.92;1.60;;;7.10;99.90;;;;;;5012162;28;20422;-68
2023/10/23 01:37:21;;;;;;;4.40;1.90;;;7.10;99.90;;;;;;4997028;28;20029;-68
2023/10/23 01:39:47;;;;;;;2.90;1.77;;;7.10;99.90;;;;;;5005287;28;20092;-69
2023/10/23 01:42:12;;;;;;;2.78;1.40;;;7.10;99.90;;;;;;5008175;28;20038;-67
2023/10/23 01:44:38;;;;;;;2.63;1.73;;;7.20;99.90;;;;;;5012611;28;20028;-67
2023/10/23 01:47:04;;;;;;;3.63;1.70;;;7.10;99.90;;;;;;5001531;28;20359;-67
2023/10/23 01:49:29;;;;;;;2.10;1.17;;;7.10;99.90;;;;;;5007625;28;20422;-68
2023/10/23 01:51:55;;;;;;;3.42;1.98;;;7.20;99.90;;;;;;5009575;28;20037;-68
2023/10/23 01:54:20;;;;;;;3.95;1.65;;;7.10;99.90;;;;;;5010390;28;20037;-67
2023/10/23 01:56:45;;;;;;;4.30;1.88;;;7.10;99.90;;;;;;5009994;28;20537;-70
2023/10/23 01:59:11;;;;;;;2.47;1.52;;;7.10;99.90;;;;;;5011190;28;20042;-68
2023/10/23 02:01:39;;;;;;;4.10;1.90;;;7.10;99.90;;;;;;5001418;28;20048;-68
2023/10/23 02:04:05;;;;;;;2.70;1.60;;;7.10;99.90;;;;;;5005143;28;20481;-68
2023/10/23 02:06:31;;;;;;;4.07;1.80;;;7.10;99.90;;;;;;5009697;28;20394;-67
2023/10/23 02:08:57;;;;;;;3.78;1.70;;;7.10;99.90;;;;;;5006531;28;20018;-67
2023/10/23 02:11:23;;;;;;;2.00;1.58;;;7.00;99.90;;;;;;5006389;28;20030;-69
2023/10/23 02:13:48;;;;;;;3.05;1.73;;;7.10;99.90;;;;;;5009437;28;20042;-69
2023/10/23 02:16:14;;;;;;;4.55;2.03;;;7.10;99.90;;;;;;5005873;28;20487;-67
2023/10/23 02:18:39;;;;;;;4.97;1.88;;;7.00;99.90;;;;;;5002646;28;20046;-68
2023/10/23 02:21:05;;;;;;;3.95;1.98;;;7.10;99.90;;;;;;5010781;28;20030;-67
2023/10/23 02:23:31;;;;;;;3.17;1.92;;;7.10;99.90;;;;;;5008381;28;20037;-68
2023/10/23 02:25:57;;;;;;;3.38;1.80;;;7.10;99.90;;;;;;5007164;28;20096;-67
2023/10/23 02:28:23;;;;;;;2.90;1.60;;;7.10;99.90;;;;;;5005150;28;20038;-67
2023/10/23 02:30:48;;;;;;;5.50;2.25;;;7.20;99.90;;;;;;5009284;28;20038;-69
2023/10/23 02:33:14;;;;;;;4.63;2.15;;;7.30;99.90;;;;;;5008868;28;20060;-67
2023/10/23 02:35:40;;;;;;;5.00;2.22;;;7.30;99.90;;;;;;5010737;28;20033;-67
2023/10/23 02:38:06;;;;;;;3.22;1.70;;;7.20;99.90;;;;;;5005606;28;20037;-67
2023/10/23 02:40:31;;;;;;;4.63;1.90;;;7.20;99.90;;;;;;5000021;28;20037;-68
2023/10/23 02:42:57;;;;;;;4.32;1.73;;;7.20;99.90;;;;;;5007926;28;20172;-67
2023/10/23 02:45:22;;;;;;;4.20;2.13;;;7.30;99.90;;;;;;5009876;28;20058;-69
2023/10/23 02:47:48;;;;;;;4.68;2.35;;;7.30;99.90;;;;;;5009954;28;20135;-69
2023/10/23 02:50:14;;;;;;;3.17;1.90;;;7.30;99.90;;;;;;5007536;28;20030;-68
2023/10/23 02:52:39;;;;;;;4.13;1.75;;;7.30;99.90;;;;;;5005792;28;20483;-67
2023/10/23 02:55:06;;;;;;;5.07;1.67;;;7.20;99.90;;;;;;5006388;28;20045;-69
2023/10/23 02:57:31;;;;;;;4.88;1.88;;;7.20;99.90;;;;;;5007064;28;20073;-68
2023/10/23 02:59:57;;;;;;;4.03;1.98;;;7.30;99.90;;;;;;5010136;28;20497;-68
2023/10/23 03:02:23;;;;;;;5.55;2.40;;;7.10;99.90;;;;;;5001564;28;20026;-68
2023/10/23 03:04:48;;;;;;;3.10;2.10;;;7.10;99.90;;;;;;5011004;28;20516;-67
2023/10/23 03:07:14;;;;;;;4.53;2.10;;;7.10;99.90;;;;;;5011854;28;20447;-67
2023/10/23 03:09:39;;;;;;;6.30;2.10;;;7.10;99.90;;;;;;5005668;28;20073;-68
2023/10/23 03:12:05;;;;;;;4.38;2.28;;;7.00;99.90;;;;;;5000387;28;20633;-67
2023/10/23 03:14:32;;;;;;;4.57;1.98;;;7.00;99.90;;;;;;5009472;28;20026;-67
2023/10/23 03:16:57;;;;;;;5.75;2.85;;;7.00;99.90;;;;;;5009733;28;20494;-67
2023/10/23 03:19:25;;;;;;;3.78;1.63;;;7.00;99.90;;;;;;5006977;28;20029;-67
2023/10/23 03:21:51;;;;;;;3.67;1.70;;;7.00;99.90;;;;;;5009425;28;20053;-68
2023/10/23 03:24:18;;;;;;;4.53;2.13;;;7.00;99.90;;;;;;5007081;28;20026;-67
2023/10/23 03:26:43;;;;;;;3.60;1.77;;;7.00;99.90;;;;;;4991524;28;20465;-67
2023/10/23 03:29:09;;;;;;;4.05;1.77;;;7.00;99.90;;;;;;5005123;28;20088;-68
2023/10/23 03:31:35;;;;;;;2.97;1.55;;;7.10;99.90;;;;;;5002928;28;20088;-67
2023/10/23 03:34:00;;;;;;;3.45;1.98;;;7.10;99.90;;;;;;5005597;28;20034;-67
2023/10/23 03:36:26;;;;;;;2.08;1.15;;;7.10;99.90;;;;;;5010155;28;20363;-68
2023/10/23 03:38:51;;;;;;;2.05;1.23;;;7.10;99.90;;;;;;5000968;28;20026;-67
2023/10/23 03:41:17;;;;;;;2.80;1.40;;;7.10;99.90;;;;;;5008989;28;20037;-68
2023/10/23 03:43:42;;;;;;;3.83;1.58;;;7.00;99.90;;;;;;5001706;28;20037;-67
2023/10/23 03:46:08;;;;;;;3.05;1.38;;;7.00;99.90;;;;;;5003187;28;20565;-70
2023/10/23 03:48:35;;;;;;;3.17;1.60;;;7.00;99.90;;;;;;5004856;28;20072;-68
2023/10/23 03:51:01;;;;;;;3.72;2.00;;;7.00;99.90;;;;;;5003520;28;20087;-68
2023/10/23 03:53:26;;;;;;;3.58;1.40;;;7.00;99.90;;;;;;5004057;28;20405;-67
2023/10/23 03:55:52;;;;;;;3.10;1.38;;;6.90;99.90;;;;;;5009293;28;20482;-67
2023/10/23 03:58:17;;;;;;;3.78;1.70;;;6.90;99.90;;;;;;5003840;28;20076;-67
2023/10/23 04:00:42;;;;;;;3.28;1.60;;;6.90;99.90;;;;;;4997619;28;20490;-67
2023/10/23 04:03:10;;;;;;;4.28;1.90;;;6.90;99.90;;;;;;4999112;28;20165;-68
2023/10/23 04:05:40;;;;;;;3.38;1.73;;;6.80;99.90;;;;;;5003360;28;20526;-67
2023/10/23 04:08:06;;;;;;;4.38;2.05;;;6.80;99.90;;;;;;5002564;28;20434;-67
2023/10/23 04:10:31;;;;;;;3.50;1.58;;;6.80;99.90;;;;;;5006326;28;20081;-71
2023/10/23 04:12:57;;;;;;;2.97;1.60;;;6.70;99.90;;;;;;5004640;28;20121;-68
2023/10/23 04:15:23;;;;;;;3.42;1.77;;;6.80;99.90;;;;;;5008796;28;20079;-68
2023/10/23 04:17:49;;;;;;;3.25;1.73;;;6.80;99.90;;;;;;5004108;28;20474;-69
2023/10/23 04:20:14;;;;;;;5.57;1.73;;;6.90;99.90;;;;;;5009123;28;20062;-68
2023/10/23 04:22:40;;;;;;;3.33;1.55;;;6.90;99.90;;;;;;5007833;28;20034;-71
2023/10/23 04:25:06;;;;;;;5.30;2.25;;;6.90;99.90;;;;;;5005445;28;20042;-67
2023/10/23 04:27:31;;;;;;;3.05;1.70;;;6.90;99.90;;;;;;4999908;28;20025;-65
2023/10/23 04:29:59;;;;;;;1.60;1.10;;;6.80;99.90;;;;;;5011146;28;20026;-66
2023/10/23 04:32:25;;;;;;;2.72;1.50;;;6.80;99.90;;;;;;5008807;28;20464;-65
2023/10/23 04:34:51;;;;;;;3.85;2.28;;;6.80;99.90;;;;;;5002032;28;20037;-65
2023/10/23 04:37:16;;;;;;;3.20;1.75;;;6.80;99.90;;;;;;5010227;28;20030;-65
2023/10/23 04:39:42;;;;;;;2.20;1.27;;;6.80;99.90;;;;;;5001525;28;20031;-66
2023/10/23 04:42:07;;;;;;;2.97;1.38;;;6.80;99.90;;;;;;5000756;28;20471;-65
2023/10/23 04:44:33;;;;;;;2.83;1.67;;;6.80;99.90;;;;;;5003378;28;20038;-66
2023/10/23 04:46:59;;;;;;;3.92;1.83;;;6.80;99.90;;;;;;5009322;28;20039;-65
2023/10/23 04:49:25;;;;;;;3.30;1.60;;;6.80;99.90;;;;;;5005931;28;20042;-65
2023/10/23 04:51:50;;;;;;;3.63;1.75;;;6.80;99.90;;;;;;5000545;28;20398;-65
2023/10/23 04:54:16;;;;;;;4.00;1.88;;;6.80;99.90;;;;;;5012096;28;20112;-65
2023/10/23 04:56:41;;;;;;;4.35;2.05;;;6.80;99.90;;;;;;5004289;28;20082;-65
2023/10/23 04:59:07;;;;;;;4.00;1.65;;;6.70;99.90;;;;;;5006130;28;20033;-67
2023/10/23 05:01:33;;;;;;;2.65;1.42;;;6.70;99.90;;;;;;5010489;28;20417;-65
2023/10/23 05:03:59;;;;;;;3.13;1.50;;;6.70;99.90;;;;;;5005401;28;20103;-66
2023/10/23 05:06:26;;;;;;;2.75;1.27;;;6.70;99.90;;;;;;5007302;28;20476;-66
2023/10/23 05:08:51;;;;;;;2.33;1.05;;;6.60;99.90;;;;;;5006849;28;20018;-65
2023/10/23 05:11:17;;;;;;;2.58;1.35;;;6.60;99.90;;;;;;5006462;28;20030;-66
2023/10/23 05:13:42;;;;;;;4.95;1.73;;;6.60;99.90;;;;;;5005960;28;20034;-65
2023/10/23 05:16:08;;;;;;;3.22;1.52;;;6.50;99.90;;;;;;5012042;28;20073;-67
2023/10/23 05:18:34;;;;;;;3.05;1.60;;;6.60;99.90;;;;;;5005277;28;20092;-66
2023/10/23 05:21:09;;;;;;;2.30;1.25;;;6.60;99.90;;;;;;5010468;28;20041;-65
2023/10/23 05:23:35;;;;;;;2.95;1.48;;;6.60;99.90;;;;;;5005896;28;20025;-65
2023/10/23 05:26:01;;;;;;;3.25;1.70;;;6.60;99.90;;;;;;5010803;28;20046;-65
2023/10/23 05:28:27;;;;;;;2.95;1.17;;;6.60;99.90;;;;;;5006182;28;20084;-64
2023/10/23 05:30:52;;;;;;;3.63;1.80;;;6.70;99.90;;;;;;5013638;28;20049;-66
2023/10/23 05:33:19;;;;;;;2.50;1.65;;;6.70;99.90;;;;;;5008842;28;20033;-64
2023/10/23 05:35:45;;;;;;;3.78;1.90;;;6.70;99.90;;;;;;5010686;28;20037;-65
2023/10/23 05:38:10;;;;;;;3.38;1.65;;;6.80;99.90;;;;;;5011108;28;20072;-65
2023/10/23 05:40:36;;;;;;;3.15;1.45;;;6.80;99.90;;;;;;5009106;28;20045;-66
2023/10/23 05:43:02;;;;;;;3.85;2.15;;;6.70;99.90;;;;;;5002784;28;20042;-65
2023/10/23 05:45:27;;;;;;;4.53;1.83;;;6.80;99.90;;;;;;5013751;28;20041;-65
2023/10/23 05:47:52;;;;;;;4.22;1.73;;;6.80;99.90;;;;;;5012085;28;20045;-65
2023/10/23 05:50:18;;;;;;;2.55;1.40;;;6.80;99.90;;;;;;5011576;28;20087;-65
2023/10/23 05:52:43;;;;;;;4.88;1.45;;;6.80;99.90;;;;;;5010056;28;20033;-65
2023/10/23 05:55:09;;;;;;;3.33;1.90;;;6.80;99.90;;;;;;5010044;28;20595;-65
2023/10/23 05:57:35;;;;;;;3.85;1.85;;;6.80;99.90;;;;;;5007338;28;20045;-65
2023/10/23 06:00:00;;;;;;;3.17;1.60;;;6.70;99.90;;;;;;5000901;28;20042;-65
2023/10/23 06:02:27;;;;;;;4.35;1.92;;;6.70;99.90;;;;;;5006974;28;20029;-65
2023/10/23 06:04:52;;;;;;;3.35;1.83;;;6.70;99.90;;;;;;5006599;28;20041;-65
2023/10/23 06:07:18;;;;;;;4.10;1.95;;;6.70;99.90;;;;;;5011605;28;20598;-65
2023/10/23 06:09:43;;;;;;;3.55;1.77;;;6.60;99.90;;;;;;5007483;28;20033;-66
2023/10/23 06:12:09;;;;;;;3.88;1.95;;;6.70;99.90;;;;;;5006407;28;20034;-66
2023/10/23 06:14:35;;;;;;;3.55;1.50;;;6.60;99.90;;;;;;4997859;28;20049;-65
2023/10/23 06:17:00;;;;;;;2.65;1.33;;;6.60;99.90;;;;;;5003184;28;20038;-65
2023/10/23 06:19:26;;;;;;;3.65;1.50;;;6.60;99.90;;;;;;5010792;28;20080;-66
2023/10/23 06:21:52;;;;;;;3.40;1.65;;;6.60;99.90;;;;;;5007103;28;20026;-66
2023/10/23 06:24:17;;;;;;;3.42;1.38;;;6.60;99.90;;;;;;5012398;28;20133;-65
2023/10/23 06:26:43;;;;;;;2.97;1.30;;;6.60;99.90;;;;;;5005580;28;20344;-65
2023/10/23 06:29:08;;;;;;;3.47;1.70;;;6.60;99.90;;;;;;5007946;28;20081;-69
2023/10/23 06:31:34;;;;;;;2.13;1.40;;;6.60;99.90;;;;;;5003202;28;20100;-65
2023/10/23 06:33:59;;;;;;;2.83;1.55;;;6.70;99.90;;;;;;5010048;28;20441;-65
2023/10/23 06:36:25;;;;;;;3.60;1.70;;;6.70;99.90;;;;;;5011463;28;20362;-68
2023/10/23 06:38:50;;;;;;;3.22;1.55;;;6.70;99.90;;;;;;5002696;28;20056;-65
2023/10/23 06:41:16;;;;;;;2.85;1.23;;;6.70;99.90;;;;;;5010892;28;20026;-66
2023/10/23 06:43:41;;;;;;;4.75;1.92;;;6.60;99.90;;;;;;5006540;28;20113;-65
2023/10/23 06:46:07;;;;;;;3.85;1.83;;;6.60;99.90;;;;;;5001822;28;20455;-66
2023/10/23 06:48:32;;;;;;;3.65;1.77;;;6.60;99.90;;;;;;5008059;28;20038;-65
2023/10/23 06:50:59;;;;;;;2.70;1.65;;;6.50;99.90;;;;;;4993912;28;20038;-67
2023/10/23 06:53:25;;;;;;;3.00;1.52;;;6.50;99.90;;;;;;4997638;28;20061;-66
2023/10/23 06:55:55;;;;;;;2.70;1.13;;;6.50;99.90;;;;;;5009335;28;20111;-65
2023/10/23 06:58:21;;;;;;;3.85;1.50;;;6.50;99.90;;;;;;5000215;28;20498;-65
2023/10/23 07:00:47;;;;;;;4.40;1.65;;;6.50;99.90;;;;;;4999978;28;20038;-65
2023/10/23 07:03:13;;;;;;;3.95;1.70;;;6.60;99.90;;;;;;5002280;28;20061;-67
2023/10/23 07:05:42;;;;;;;3.58;1.73;;;6.60;99.90;;;;;;4997114;28;20066;-66
2023/10/23 07:08:07;;;;;;;3.13;1.60;;;6.70;99.90;;;;;;4998469;28;20426;-66
2023/10/23 07:10:34;;;;;;;4.30;1.70;;;6.80;99.90;;;;;;5006574;28;20037;-66
2023/10/23 07:13:00;;;;;;;3.58;1.58;;;6.80;99.90;;;;;;5001249;28;20045;-65
2023/10/23 07:15:26;;;;;;;4.03;1.92;;;6.80;99.90;;;;;;5004695;28;20026;-65
2023/10/23 07:17:52;;;;;;;4.78;2.22;;;6.80;99.90;;;;;;5005856;28;20036;-66
2023/10/23 07:20:17;;;;;;;3.75;1.85;;;6.90;99.90;;;;;;4994767;28;20068;-65
2023/10/23 07:22:43;;;;;;;3.17;1.60;;;7.00;99.90;;;;;;5004811;28;20058;-65
2023/10/23 07:25:10;;;;;;;4.72;1.92;;;7.00;99.90;;;;;;5007799;28;20049;-66
2023/10/23 07:27:35;;;;;;;3.45;1.75;;;7.00;99.90;;;;;;4998705;28;20077;-66
2023/10/23 07:30:04;;;;;;;2.67;1.67;;;7.10;99.90;;;;;;4997357;28;20042;-66
2023/10/23 07:32:29;;;;;;;4.55;2.10;;;7.00;99.90;;;;;;5003327;28;20513;-65
2023/10/23 07:34:55;;;;;;;2.50;1.25;;;7.10;99.90;;;;;;5002835;28;20145;-68
2023/10/23 07:37:21;;;;;;;5.72;2.40;;;7.30;99.90;;;;;;4999329;28;20092;-67
2023/10/23 07:39:50;;;;;;;5.25;2.15;;;7.40;99.90;;;;;;4992754;28;20454;-65
2023/10/23 07:42:15;;;;;;;5.85;2.20;;;7.50;99.90;;;;;;5000152;28;20120;-66
2023/10/23 07:44:42;;;;;;;4.30;2.38;;;7.50;99.90;;;;;;5002372;28;20534;-66
2023/10/23 07:47:07;;;;;;;3.25;1.73;;;7.60;99.90;;;;;;5002940;28;20037;-66
2023/10/23 07:49:33;;;;;;;5.13;2.10;;;7.60;99.90;;;;;;4998654;28;20038;-67
2023/10/23 07:51:58;;;;;;;3.90;2.28;;;7.70;99.90;;;;;;4999452;28;20049;-65
2023/10/23 07:54:24;;;;;;;4.50;1.95;;;7.70;99.90;;;;;;5007747;28;20058;-66
2023/10/23 07:56:49;;;;;;;3.38;2.03;;;7.80;99.90;;;;;;5000444;28;20445;-67
2023/10/23 07:59:16;;;;;;;3.08;1.85;;;7.90;99.90;;;;;;5001665;28;20041;-66
2023/10/23 08:01:42;;;;;;;4.32;2.10;;;7.90;99.90;;;;;;4997623;28;20250;-65
2023/10/23 08:04:08;;;;;;;5.55;2.45;;;8.00;99.90;;;;;;4999468;28;20101;-67
2023/10/23 08:06:34;;;;;;;3.75;2.13;;;8.00;99.90;;;;;;5004076;28;20489;-69
2023/10/23 08:08:59;;;;;;;5.18;2.67;;;8.10;99.90;;;;;;4966866;28;20050;-65
2023/10/23 08:11:25;;;;;;;4.57;2.65;;;8.10;99.90;;;;;;5002246;28;20490;-68
2023/10/23 08:13:50;;;;;;;5.43;2.60;;;8.20;99.90;;;;;;5004246;28;20045;-65
2023/10/23 08:16:16;;;;;;;5.50;2.42;;;8.20;99.90;;;;;;5003336;28;20042;-65
2023/10/23 08:18:41;;;;;;;5.53;2.85;;;8.30;99.90;;;;;;5002675;28;20038;-65
2023/10/23 08:21:11;;;;;;;4.45;2.20;;;8.30;99.90;;;;;;5001062;28;20033;-65
2023/10/23 08:23:36;;;;;;;5.93;2.90;;;8.50;99.90;;;;;;4997216;28;20141;-67
2023/10/23 08:26:03;;;;;;;7.50;2.55;;;8.60;99.90;;;;;;5003306;28;20596;-64
2023/10/23 08:28:29;;;;;;;5.03;2.58;;;8.60;99.90;;;;;;4998282;28;20491;-66
2023/10/23 08:30:55;;;;;;;6.00;3.13;;;8.60;99.90;;;;;;5000657;28;20077;-65
2023/10/23 08:33:20;;;;;;;4.88;2.55;;;8.70;99.90;;;;;;4994924;28;20053;-65
2023/10/23 08:35:46;;;;;;;6.65;3.30;;;8.70;99.90;;;;;;5001131;28;20038;-66
2023/10/23 08:38:11;;;;;;;6.25;2.97;;;8.80;99.90;;;;;;4999035;28;20026;-65
2023/10/23 08:40:37;;;;;;;5.63;2.50;;;8.70;99.90;;;;;;4996513;28;20128;-65
2023/10/23 08:43:04;;;;;;;7.07;2.90;;;8.80;99.90;;;;;;5001453;28;20056;-66
2023/10/23 08:45:30;;;;;;;6.65;3.20;;;8.80;99.90;;;;;;5002322;28;20033;-66
2023/10/23 08:47:55;;;;;;;7.80;3.80;;;8.80;99.90;;;;;;4997692;28;20022;-65
2023/10/23 08:50:24;;;;;;;6.65;3.20;;;8.80;99.90;;;;;;5005351;28;20026;-65
2023/10/23 08:52:57;;;;;;;7.45;3.67;;;8.80;99.90;;;;;;4998979;28;20096;-65
2023/10/23 08:55:25;;;;;;;5.53;2.55;;;8.80;99.90;;;;;;5000136;28;20037;-65
2023/10/23 08:57:53;;;;;;;6.60;3.00;;;8.90;99.90;;;;;;4998559;28;20034;-66
2023/10/23 09:00:22;;;;;;;7.85;3.78;;;8.80;99.90;;;;;;5001623;28;20030;-67
2023/10/23 09:02:49;;;;;;;9.48;4.18;;;9.00;99.90;;;;;;5005762;28;20088;-65
2023/10/23 09:05:15;;;;;;;9.35;4.32;;;9.00;99.90;;;;;;5006876;28;20037;-66
2023/10/23 09:07:40;;;;;;;8.52;4.15;;;9.10;99.90;;;;;;4974304;28;20053;-67
2023/10/23 09:10:06;;;;;;;7.88;3.55;;;9.00;99.90;;;;;;4999913;28;20037;-68
2023/10/23 09:12:33;;;;;;;7.95;3.80;;;9.00;99.90;;;;;;5001445;28;20042;-68
2023/10/23 09:15:24;;;;;;;8.80;3.83;;;9.00;99.90;;;;;;5002881;28;20097;-68
2023/10/23 09:17:50;;;;;;;8.50;3.95;;;9.10;99.90;;;;;;4992173;28;20124;-68
2023/10/23 09:20:16;;;;;;;8.45;4.57;;;9.30;99.90;;;;;;5005965;28;20050;-67
2023/10/23 09:22:46;;;;;;;8.73;4.40;;;9.50;99.90;;;;;;5005024;28;20038;-67
2023/10/23 09:25:14;;;;;;;8.68;4.53;;;9.60;99.90;;;;;;5005354;28;20046;-67
2023/10/23 09:27:40;;;;;;;9.30;4.15;;;9.80;99.90;;;;;;4994108;28;20486;-70
2023/10/23 09:30:06;;;;;;;8.00;4.10;;;9.80;99.90;;;;;;5001309;28;20133;-67
2023/10/23 09:32:32;;;;;;;7.55;3.97;;;9.80;99.90;;;;;;5018661;28;20026;-66
2023/10/23 09:34:57;;;;;;;10.45;3.97;;;9.80;99.80;;;;;;5003476;28;20049;-68
2023/10/23 09:37:24;;;;;;;7.40;3.88;;;9.80;99.80;;;;;;5007518;28;20061;-67
2023/10/23 09:39:50;;;;;;;8.38;4.40;;;9.80;99.70;;;;;;5002551;28;20047;-67
2023/10/23 09:42:18;;;;;;;10.45;4.05;;;10.00;99.70;;;;;;5006447;28;20645;-67
2023/10/23 09:44:47;;;;;;;6.82;3.58;;;9.80;99.20;;;;;;5006414;28;20470;-67
2023/10/23 09:47:15;;;;;;;8.23;4.28;;;10.00;99.30;;;;;;5003955;28;20422;-67
2023/10/23 09:49:41;;;;;;;8.25;3.92;;;10.00;99.00;;;;;;5001329;28;20038;-65
2023/10/23 09:52:09;;;;;;;8.25;4.07;;;10.20;99.30;;;;;;4999502;28;20080;-68
2023/10/23 09:54:38;;;;;;;7.93;3.95;;;10.20;98.50;;;;;;5005936;28;20057;-67
2023/10/23 09:57:07;;;;;;;6.25;3.50;;;10.30;98.70;;;;;;5004292;28;21987;-66
2023/10/23 09:59:42;;;;;;;7.07;3.60;;;10.30;98.70;;;;;;5005757;28;20030;-66
2023/10/23 10:02:09;;;;;;;8.27;4.13;;;10.40;98.60;;;;;;5006975;28;20026;-65
2023/10/23 10:05:21;;;;;;;8.85;4.32;;;10.30;98.10;;;;;;5000343;28;20113;-67
2023/10/23 10:07:53;;;;;;;7.55;3.92;;;10.10;97.70;;;;;;4982631;28;20139;-67
2023/10/23 10:10:20;;;;;;;7.60;3.90;;;10.40;97.70;;;;;;4998046;28;20069;-68
2023/10/23 10:12:46;;;;;;;7.75;4.03;;;10.50;97.70;;;;;;4992323;28;20577;-66
2023/10/23 10:15:12;;;;;;;6.65;3.58;;;10.40;97.60;;;;;;4998451;28;20133;-66
2023/10/23 10:17:42;;;;;;;7.22;3.95;;;10.60;97.90;;;;;;5001302;28;20135;-67
2023/10/23 10:20:09;;;;;;;7.50;3.80;;;10.50;97.90;;;;;;5008875;28;20066;-66
2023/10/23 10:22:38;;;;;;;8.13;4.00;;;10.70;98.00;;;;;;5007506;28;20080;-66
2023/10/23 10:25:05;;;;;;;8.80;4.15;;;10.80;97.50;;;;;;5009231;28;20054;-66
2023/10/23 10:27:31;;;;;;;7.35;3.78;;;10.80;97.10;;;;;;5006673;28;20042;-66
2023/10/23 10:30:01;;;;;;;7.15;3.90;;;11.00;97.00;;;;;;4998895;28;20538;-68
2023/10/23 10:32:26;;;;;;;6.78;3.90;;;11.00;96.30;;;;;;4999945;28;20112;-65
2023/10/23 10:34:53;;;;;;;6.97;3.88;;;11.00;96.20;;;;;;5003216;28;20026;-65
2023/10/23 10:37:23;;;;;;;6.63;3.40;;;11.10;96.00;;;;;;4993697;28;20042;-66
2023/10/23 10:39:52;;;;;;;6.03;3.40;;;11.30;96.10;;;;;;5001476;28;20407;-66
2023/10/23 10:42:19;;;;;;;8.50;4.15;;;11.20;95.60;;;;;;5001440;28;20034;-66
2023/10/23 10:45:20;;;;;;;7.05;3.85;;;11.30;95.40;;;;;;4997758;28;20475;-68
2023/10/23 10:47:48;;;;;;;6.88;3.60;;;11.40;96.00;;;;;;5010380;28;20053;-66
2023/10/23 10:50:36;;;;;;;7.00;4.10;;;11.40;95.20;;;;;;5001073;28;20039;-66
2023/10/23 10:53:03;;;;;;;7.03;3.67;;;11.50;95.00;;;;;;4998922;28;21317;-65
2023/10/23 10:55:29;;;;;;;7.35;3.47;;;11.40;94.40;;;;;;5000331;28;20034;-66
2023/10/23 10:57:55;;;;;;;8.63;4.35;;;11.40;94.80;;;;;;4997271;28;20405;-67
2023/10/23 11:00:22;;;;;;;7.75;3.83;;;11.70;94.90;;;;;;5003516;28;20034;-66
2023/10/23 11:02:48;;;;;;;8.35;4.28;;;12.00;94.80;;;;;;4998409;28;20072;-66
2023/10/23 11:05:14;;;;;;;6.97;3.55;;;11.80;94.00;;;;;;5002371;28;20066;-66
2023/10/23 11:07:40;;;;;;;7.38;3.50;;;11.50;93.50;;;;;;4982934;28;20049;-66
2023/10/23 11:10:06;;;;;;;7.82;4.22;;;11.30;93.80;;;;;;4999145;28;20053;-66
2023/10/23 11:12:32;;;;;;;5.65;3.67;;;11.40;94.40;;;;;;5004386;28;20058;-66
2023/10/23 11:14:57;;;;;;;6.03;3.28;;;11.90;93.50;;;;;;5007795;28;20068;-66
2023/10/23 11:17:23;;;;;;;8.55;4.10;;;12.00;92.50;;;;;;5005591;28;20124;-66
2023/10/23 11:19:49;;;;;;;7.25;3.38;;;12.10;92.90;;;;;;5010390;28;20046;-66
2023/10/23 11:22:17;;;;;;;5.38;2.95;;;12.40;91.90;;;;;;5002281;28;20021;-66
2023/10/23 11:24:43;;;;;;;6.45;3.30;;;12.70;92.40;;;;;;5004241;28;20088;-67
2023/10/23 11:27:09;;;;;;;5.28;3.33;;;12.90;90.50;;;;;;4999570;28;20042;-68
2023/10/23 11:29:45;;;;;;;7.57;2.92;;;13.40;89.80;;;;;;4997743;28;20045;-67
2023/10/23 11:32:13;;;;;;;5.55;2.55;;;13.60;87.80;;;;;;4998592;28;20132;-66
2023/10/23 11:34:39;;;;;;;5.10;2.65;;;13.70;88.40;;;;;;5009473;28;20050;-67
2023/10/23 11:37:06;;;;;;;5.13;2.65;;;14.20;87.50;;;;;;5009726;28;20029;-66
2023/10/23 11:39:34;;;;;;;4.85;2.50;;;14.10;86.40;;;;;;5003546;28;20030;-67
2023/10/23 11:42:00;;;;;;;4.40;2.55;;;14.30;86.30;;;;;;5005081;28;20040;-66
2023/10/23 11:44:29;;;;;;;4.82;2.33;;;14.60;86.40;;;;;;5005974;28;20033;-67
2023/10/23 11:46:56;;;;;;;4.45;2.10;;;14.90;85.20;;;;;;5008388;28;20383;-66
2023/10/23 11:49:25;;;;;;;3.72;2.10;;;14.60;83.70;;;;;;5011078;28;20478;-67
2023/10/23 11:51:57;;;;;;;4.90;2.30;;;14.80;83.90;;;;;;5003365;28;20467;-67
2023/10/23 11:54:26;;;;;;;4.25;2.10;;;14.70;83.00;;;;;;5001290;28;20105;-67
2023/10/23 11:56:54;;;;;;;4.13;1.88;;;15.00;83.00;;;;;;4997444;28;20041;-66
2023/10/23 11:59:21;;;;;;;4.68;2.15;;;15.10;82.60;;;;;;5005918;28;20116;-67
2023/10/23 12:01:48;;;;;;;3.03;1.92;;;15.10;82.00;;;;;;5007635;28;21110;-67
2023/10/23 12:04:13;;;;;;;3.40;1.85;;;15.20;81.60;;;;;;5007254;28;20040;-68
2023/10/23 12:06:40;;;;;;;4.03;2.08;;;15.50;80.50;;;;;;5005616;28;20046;-66
2023/10/23 12:09:06;;;;;;;2.80;1.50;;;15.60;79.00;;;;;;4983062;28;20061;-68
2023/10/23 12:11:33;;;;;;;2.92;1.42;;;15.50;79.50;;;;;;4989984;28;20376;-68
2023/10/23 12:14:00;;;;;;;3.03;1.50;;;15.70;80.70;;;;;;4997429;28;20038;-68
2023/10/23 12:16:27;;;;;;;4.78;1.85;;;15.90;79.10;;;;;;4999193;28;20038;-67
2023/10/23 12:18:52;;;;;;;3.85;1.80;;;16.10;79.40;;;;;;5001501;28;20088;-66
2023/10/23 12:21:18;;;;;;;3.28;1.55;;;15.60;78.40;;;;;;5010041;28;20443;-66
2023/10/23 12:23:44;;;;;;;3.22;1.52;;;15.30;79.60;;;;;;5008109;28;20022;-67
2023/10/23 12:26:11;;;;;;;2.53;1.17;;;16.10;79.00;;;;;;4998441;28;20510;-69
2023/10/23 12:28:36;;;;;;;3.35;1.63;;;16.20;78.90;;;;;;5000811;28;20055;-66
2023/10/23 12:31:04;;;;;;;3.83;1.70;;;16.40;75.60;;;;;;5005396;28;20034;-77
2023/10/23 12:33:30;;;;;;;2.60;1.52;;;16.60;77.50;;;;;;4999155;28;20125;-67
2023/10/23 12:35:55;;;;;;;3.30;1.70;;;16.90;78.80;;;;;;5000185;28;20030;-67
2023/10/23 12:38:21;;;;;;;3.33;1.70;;;16.60;77.30;;;;;;4997068;28;20034;-69
2023/10/23 12:40:48;;;;;;;2.95;1.45;;;17.10;75.50;;;;;;4999971;28;20498;-68
2023/10/23 12:43:14;;;;;;;3.40;1.75;;;17.30;75.90;;;;;;4999063;28;20034;-68
2023/10/23 12:45:41;;;;;;;3.40;1.63;;;17.00;73.30;;;;;;4998106;28;20023;-69
2023/10/23 12:48:06;;;;;;;2.85;1.30;;;17.20;74.30;;;;;;5002141;28;20030;-67
2023/10/23 12:50:32;;;;;;;3.05;1.30;;;17.60;74.00;;;;;;5000523;28;20030;-67
2023/10/23 12:52:58;;;;;;;1.83;1.00;;;17.60;72.50;;;;;;4998614;28;20057;-67